Time;durP1;ratioP1;P1;durP2;ratioP2;P2;SDS_P1;SDS_P2;PMS_P1;PMS_P2;Temp;Humidity;BMP_temperature;BMP_pressure;BME280_temperature;BME280_humidity;BME280_pressure;Samples;Min_cycle;Max_cycle;Signal;HPM_P1;HPM_P2
2022/03/27 00:01:34;;;;;;;11.02;6.30;;;7.50;99.90;;;;;;4957708;28;20053;-72
2022/03/27 00:04:02;;;;;;;12.75;5.75;;;7.50;99.90;;;;;;4961040;28;252021;-72
2022/03/27 00:06:29;;;;;;;12.40;6.15;;;7.50;99.90;;;;;;4966886;28;20061;-72
2022/03/27 00:08:55;;;;;;;12.77;6.30;;;7.50;99.90;;;;;;4977267;28;264262;-71
2022/03/27 00:11:24;;;;;;;10.93;5.30;;;7.40;99.90;;;;;;4970338;28;20061;-73
2022/03/27 00:13:55;;;;;;;12.15;5.40;;;7.40;99.90;;;;;;4996606;28;272665;-71
2022/03/27 00:16:22;;;;;;;15.23;5.93;;;7.30;99.90;;;;;;4959422;28;20042;-72
2022/03/27 00:18:48;;;;;;;14.57;5.68;;;7.40;99.90;;;;;;5002741;28;266940;-71
2022/03/27 00:21:14;;;;;;;11.05;5.25;;;7.40;99.90;;;;;;4968787;28;20476;-71
2022/03/27 00:23:43;;;;;;;10.93;5.18;;;7.40;99.90;;;;;;4986027;28;20042;-71
2022/03/27 00:26:11;;;;;;;11.52;5.70;;;7.40;99.90;;;;;;4960846;28;44766;-71
2022/03/27 00:28:37;;;;;;;12.27;5.47;;;7.40;99.90;;;;;;4995471;28;20500;-71
2022/03/27 00:31:07;;;;;;;11.75;5.97;;;7.30;99.90;;;;;;4942044;28;182995;-72
2022/03/27 00:33:35;;;;;;;12.68;5.32;;;7.30;99.90;;;;;;4991200;28;20046;-72
2022/03/27 00:36:06;;;;;;;13.63;5.75;;;7.30;99.90;;;;;;4937603;28;124850;-72
2022/03/27 00:38:32;;;;;;;13.77;6.38;;;7.30;99.90;;;;;;5015837;28;20042;-72
2022/03/27 00:40:59;;;;;;;16.85;6.47;;;7.30;99.90;;;;;;4937651;28;154161;-71
2022/03/27 00:43:27;;;;;;;13.18;6.22;;;7.30;99.90;;;;;;4986830;28;20046;-72
2022/03/27 00:45:54;;;;;;;13.65;5.75;;;7.30;99.90;;;;;;4949152;28;291572;-72
2022/03/27 00:48:21;;;;;;;14.75;6.40;;;7.30;99.90;;;;;;4981662;28;20411;-72
2022/03/27 00:50:49;;;;;;;16.33;6.80;;;7.30;99.90;;;;;;4953962;28;265992;-72
2022/03/27 00:53:16;;;;;;;13.77;6.90;;;7.30;99.90;;;;;;4983310;28;20062;-71
2022/03/27 00:55:44;;;;;;;13.65;6.82;;;7.30;99.90;;;;;;4981092;28;209693;-71
2022/03/27 00:58:12;;;;;;;15.93;7.13;;;7.30;99.90;;;;;;5010576;28;20061;-72
2022/03/27 01:00:38;;;;;;;13.15;6.65;;;7.30;99.90;;;;;;4967493;28;262956;-72
2022/03/27 01:03:11;;;;;;;15.65;6.47;;;7.30;99.90;;;;;;4998076;28;20053;-73
2022/03/27 01:05:38;;;;;;;14.23;6.43;;;7.30;99.90;;;;;;4977016;28;108930;-72
2022/03/27 01:08:07;;;;;;;15.85;6.63;;;7.20;99.90;;;;;;5000864;28;20049;-72
2022/03/27 01:10:34;;;;;;;13.10;5.78;;;7.20;99.90;;;;;;4971622;28;133828;-73
2022/03/27 01:13:16;;;;;;;17.92;7.25;;;7.30;99.90;;;;;;5015974;28;20062;-70
2022/03/27 01:15:46;;;;;;;17.67;7.35;;;7.30;99.90;;;;;;4987162;28;271392;-69
2022/03/27 01:18:13;;;;;;;17.00;7.07;;;7.30;99.90;;;;;;5003450;28;20419;-71
2022/03/27 01:20:41;;;;;;;17.10;7.53;;;7.20;99.90;;;;;;4977555;28;270016;-71
2022/03/27 01:23:10;;;;;;;22.05;10.48;;;7.20;99.90;;;;;;5000020;28;20053;-70
2022/03/27 01:25:38;;;;;;;20.23;9.80;;;7.10;99.90;;;;;;4968388;28;258387;-71
2022/03/27 01:28:05;;;;;;;16.88;7.75;;;7.10;99.90;;;;;;5004905;28;20057;-71
2022/03/27 01:30:32;;;;;;;17.35;7.22;;;7.10;99.90;;;;;;4969976;28;272271;-72
2022/03/27 01:32:58;;;;;;;19.10;9.57;;;7.10;99.90;;;;;;5005495;28;20088;-71
2022/03/27 01:35:24;;;;;;;21.88;11.38;;;7.20;99.90;;;;;;4976267;28;259045;-71
2022/03/27 01:37:50;;;;;;;21.80;10.82;;;7.10;99.90;;;;;;4993728;28;20069;-71
2022/03/27 01:40:17;;;;;;;20.40;9.30;;;7.10;99.90;;;;;;4967434;28;202185;-72
2022/03/27 01:42:44;;;;;;;17.38;7.88;;;7.10;99.90;;;;;;5010848;28;20498;-72
2022/03/27 01:45:11;;;;;;;20.92;9.10;;;7.10;99.90;;;;;;4972455;28;60156;-72
2022/03/27 01:47:37;;;;;;;22.73;9.73;;;7.10;99.90;;;;;;5017433;28;20046;-72
2022/03/27 01:50:06;;;;;;;22.67;11.93;;;7.10;99.90;;;;;;4970975;28;276993;-72
2022/03/27 01:52:33;;;;;;;22.42;11.02;;;7.10;99.90;;;;;;5011007;28;20034;-71
2022/03/27 01:54:59;;;;;;;20.73;10.00;;;7.10;99.90;;;;;;4973167;28;258742;-71
2022/03/27 01:57:25;;;;;;;20.88;9.15;;;7.10;99.90;;;;;;5008989;28;20059;-71
2022/03/27 01:59:52;;;;;;;23.15;9.68;;;7.10;99.90;;;;;;4964541;28;218060;-71
2022/03/27 02:02:23;;;;;;;21.38;9.73;;;7.00;99.90;;;;;;5007672;28;20049;-71
2022/03/27 02:04:50;;;;;;;;;;;7.10;99.90;;;;;;4963583;28;260716;-71
2022/03/27 02:07:17;;;;;;;23.50;9.60;;;7.00;99.90;;;;;;5012062;28;20290;-71
2022/03/27 02:09:45;;;;;;;24.27;10.27;;;7.00;99.90;;;;;;4980887;28;120468;-72
2022/03/27 02:12:11;;;;;;;23.60;10.32;;;7.00;99.90;;;;;;5027860;28;20058;-71
2022/03/27 02:14:38;;;;;;;27.52;12.57;;;7.10;99.90;;;;;;4965959;28;261383;-71
2022/03/27 02:17:04;;;;;;;27.15;13.45;;;7.10;99.90;;;;;;5024890;28;20038;-72
2022/03/27 02:19:30;;;;;;;25.00;13.38;;;7.10;99.90;;;;;;4968329;28;275106;-71
2022/03/27 02:21:56;;;;;;;29.27;12.98;;;7.10;99.90;;;;;;5023772;28;20054;-71
2022/03/27 02:24:22;;;;;;;25.90;12.48;;;7.10;99.90;;;;;;4976133;28;250114;-71
2022/03/27 02:26:50;;;;;;;25.38;12.95;;;7.00;99.90;;;;;;5022118;28;20049;-70
2022/03/27 02:29:18;;;;;;;21.55;11.15;;;7.10;99.90;;;;;;4997340;28;271178;-70
2022/03/27 02:31:44;;;;;;;22.45;11.00;;;7.10;99.90;;;;;;4977043;28;20141;-70
2022/03/27 02:34:12;;;;;;;24.73;11.45;;;7.10;99.90;;;;;;4991051;28;275038;-71
2022/03/27 02:36:38;;;;;;;28.13;11.10;;;7.10;99.90;;;;;;4972503;28;20094;-71
2022/03/27 02:39:05;;;;;;;29.73;12.10;;;7.10;99.90;;;;;;4992559;28;272724;-71
2022/03/27 02:41:31;;;;;;;29.02;12.10;;;7.10;99.90;;;;;;4990047;28;20455;-70
2022/03/27 02:43:58;;;;;;;23.67;11.43;;;7.10;99.90;;;;;;4985996;28;262395;-71
2022/03/27 02:46:24;;;;;;;26.25;10.77;;;7.00;99.90;;;;;;4993039;28;20391;-71
2022/03/27 02:48:50;;;;;;;23.10;10.25;;;7.00;99.90;;;;;;4987937;28;276336;-72
2022/03/27 02:51:16;;;;;;;25.17;10.98;;;7.00;99.90;;;;;;5009942;28;20049;-72
2022/03/27 02:53:42;;;;;;;25.38;10.70;;;7.00;99.90;;;;;;5039177;28;20080;-71
2022/03/27 02:56:09;;;;;;;27.08;10.65;;;7.00;99.90;;;;;;4977760;28;171312;-72
2022/03/27 02:58:35;;;;;;;27.55;11.35;;;6.90;99.90;;;;;;5007084;28;20514;-72
2022/03/27 03:01:03;;;;;;;25.48;10.10;;;6.90;99.90;;;;;;4976400;28;107037;-71
2022/03/27 03:03:29;;;;;;;26.75;10.88;;;6.90;99.90;;;;;;4986515;28;20049;-73
2022/03/27 03:05:55;;;;;;;23.40;9.57;;;6.90;99.90;;;;;;4943847;28;183233;-72
2022/03/27 03:08:21;;;;;;;25.08;9.05;;;6.90;99.90;;;;;;5008956;28;20061;-72
2022/03/27 03:10:47;;;;;;;26.02;9.35;;;6.90;99.90;;;;;;4986186;28;259934;-72
2022/03/27 03:13:14;;;;;;;26.33;10.00;;;6.90;99.90;;;;;;5021650;28;20045;-71
2022/03/27 03:15:42;;;;;;;19.88;9.43;;;6.90;99.90;;;;;;4976230;28;75270;-71
2022/03/27 03:18:10;;;;;;;23.45;8.57;;;6.90;99.90;;;;;;5006797;28;20049;-72
2022/03/27 03:20:36;;;;;;;25.45;9.82;;;6.90;99.90;;;;;;4960102;28;84552;-71
2022/03/27 03:23:03;;;;;;;28.25;8.35;;;6.90;99.90;;;;;;5013090;28;20399;-71
2022/03/27 03:25:30;;;;;;;22.05;8.98;;;6.90;99.90;;;;;;4975453;28;270794;-71
2022/03/27 03:27:57;;;;;;;21.95;8.65;;;6.90;99.90;;;;;;4995103;28;20058;-71
2022/03/27 03:30:23;;;;;;;24.35;9.07;;;6.90;99.90;;;;;;4987331;28;255455;-72
2022/03/27 03:32:50;;;;;;;22.35;8.38;;;6.90;99.90;;;;;;5006066;28;20416;-72
2022/03/27 03:35:16;;;;;;;21.55;8.52;;;6.90;99.90;;;;;;4973238;28;249168;-70
2022/03/27 03:37:42;;;;;;;27.08;9.32;;;6.90;99.90;;;;;;4997122;28;20062;-71
2022/03/27 03:40:09;;;;;;;30.17;9.07;;;6.90;99.90;;;;;;4987944;28;240962;-71
2022/03/27 03:42:35;;;;;;;21.65;8.20;;;6.90;99.90;;;;;;5016777;28;20057;-71
2022/03/27 03:45:03;;;;;;;27.05;8.45;;;6.90;99.90;;;;;;4989653;28;169964;-71
2022/03/27 03:47:29;;;;;;;26.52;8.43;;;6.90;99.90;;;;;;5020315;28;20069;-71
2022/03/27 03:49:56;;;;;;;22.48;8.38;;;6.90;99.90;;;;;;4982097;28;273298;-71
2022/03/27 03:52:22;;;;;;;27.40;8.70;;;6.90;99.90;;;;;;5023652;28;20049;-70
2022/03/27 03:54:49;;;;;;;22.98;8.55;;;6.90;99.90;;;;;;4968921;28;296770;-71
2022/03/27 03:57:15;;;;;;;25.23;8.80;;;6.90;99.90;;;;;;5011148;28;20045;-72
2022/03/27 03:59:41;;;;;;;25.65;9.73;;;6.90;99.90;;;;;;4973470;28;253388;-72
2022/03/27 04:02:08;;;;;;;26.25;10.23;;;6.90;99.90;;;;;;5025280;28;20033;-72
2022/03/27 04:04:35;;;;;;;22.50;9.10;;;6.90;99.90;;;;;;4951103;28;226579;-72
2022/03/27 04:07:04;;;;;;;22.90;9.60;;;6.90;99.90;;;;;;5014650;28;20046;-72
2022/03/27 04:09:30;;;;;;;27.67;9.23;;;6.90;99.90;;;;;;4968368;28;179944;-72
2022/03/27 04:11:57;;;;;;;25.40;9.82;;;6.90;99.90;;;;;;5033165;28;20045;-71
2022/03/27 04:14:23;;;;;;;24.73;10.25;;;6.90;99.90;;;;;;4975040;28;36455;-71
2022/03/27 04:16:49;;;;;;;31.02;11.02;;;6.90;99.90;;;;;;5016266;28;20041;-72
2022/03/27 04:19:16;;;;;;;31.65;10.43;;;6.90;99.90;;;;;;5027561;28;24137;-71
2022/03/27 04:21:42;;;;;;;35.58;10.75;;;6.80;99.90;;;;;;4987789;28;20057;-72
2022/03/27 04:24:09;;;;;;;27.45;10.65;;;6.80;99.90;;;;;;4993200;28;272028;-71
2022/03/27 04:26:36;;;;;;;33.28;11.48;;;6.80;99.90;;;;;;4994287;28;20088;-71
2022/03/27 04:29:03;;;;;;;33.10;11.02;;;6.80;99.90;;;;;;4991918;28;262696;-71
2022/03/27 04:31:30;;;;;;;33.13;10.45;;;6.90;99.90;;;;;;4988355;28;20037;-71
2022/03/27 04:33:56;;;;;;;28.80;10.05;;;6.80;99.90;;;;;;4965966;28;275775;-70
2022/03/27 04:36:22;;;;;;;30.35;9.57;;;6.90;99.90;;;;;;4960702;28;20120;-71
2022/03/27 04:38:48;;;;;;;35.78;10.40;;;6.90;99.90;;;;;;5013444;28;251286;-70
2022/03/27 04:41:15;;;;;;;29.25;9.93;;;6.80;99.90;;;;;;4977795;28;20046;-71
2022/03/27 04:43:43;;;;;;;40.58;10.68;;;6.80;99.90;;;;;;5037910;28;20054;-71
2022/03/27 04:46:09;;;;;;;28.48;10.00;;;6.80;99.90;;;;;;4991562;28;269919;-71
2022/03/27 04:48:35;;;;;;;37.70;10.23;;;6.80;99.90;;;;;;5008655;28;20050;-70
2022/03/27 04:51:01;;;;;;;36.22;9.50;;;6.80;99.90;;;;;;4989944;28;270389;-71
2022/03/27 04:53:27;;;;;;;39.90;10.45;;;6.70;99.90;;;;;;5035887;28;20062;-73
2022/03/27 04:55:54;;;;;;;42.65;10.20;;;6.70;99.90;;;;;;4973477;28;65177;-70
2022/03/27 04:58:20;;;;;;;37.70;9.98;;;6.70;99.90;;;;;;5008412;28;20054;-71
2022/03/27 05:00:46;;;;;;;31.55;9.77;;;6.60;99.90;;;;;;4970925;28;327104;-71
2022/03/27 05:03:13;;;;;;;39.22;10.20;;;6.60;99.90;;;;;;4998384;28;20069;-71
2022/03/27 05:05:40;;;;;;;32.30;9.80;;;6.60;99.90;;;;;;4971852;28;186141;-72
2022/03/27 05:08:06;;;;;;;40.08;9.63;;;6.60;99.90;;;;;;5004771;28;20380;-73
2022/03/27 05:10:32;;;;;;;43.08;9.90;;;6.60;99.90;;;;;;4983210;28;262300;-72
2022/03/27 05:12:59;;;;;;;33.30;8.77;;;6.60;99.90;;;;;;5014848;28;20081;-71
2022/03/27 05:15:27;;;;;;;33.22;9.43;;;6.60;99.90;;;;;;4976655;28;280448;-71
2022/03/27 05:17:57;;;;;;;34.67;9.38;;;6.60;99.90;;;;;;5013527;28;20383;-71
2022/03/27 05:20:27;;;;;;;32.10;9.55;;;6.60;99.90;;;;;;4973822;28;255105;-71
2022/03/27 05:22:54;;;;;;;37.58;9.20;;;6.60;99.90;;;;;;5006171;28;20050;-71
2022/03/27 05:25:21;;;;;;;38.75;10.00;;;6.60;99.90;;;;;;4976146;28;252662;-71
2022/03/27 05:27:50;;;;;;;33.75;9.15;;;6.60;99.90;;;;;;5007061;28;20062;-71
2022/03/27 05:30:21;;;;;;;40.80;9.60;;;6.60;99.90;;;;;;4977951;28;229415;-71
2022/03/27 05:32:48;;;;;;;43.80;9.23;;;6.60;99.90;;;;;;5007650;28;20057;-71
2022/03/27 05:35:15;;;;;;;45.33;9.77;;;6.60;99.90;;;;;;4975815;28;270839;-70
2022/03/27 05:37:43;;;;;;;33.88;8.93;;;6.60;99.90;;;;;;5003757;28;20049;-70
2022/03/27 05:40:12;;;;;;;38.58;9.45;;;6.60;99.90;;;;;;4995509;28;106835;-70
2022/03/27 05:42:39;;;;;;;43.30;8.55;;;6.60;99.90;;;;;;5006842;28;20049;-70
2022/03/27 05:45:07;;;;;;;60.50;9.30;;;6.60;99.90;;;;;;4962882;28;172186;-70
2022/03/27 05:47:34;;;;;;;36.45;8.50;;;6.60;99.90;;;;;;5010192;28;20096;-70
2022/03/27 05:50:00;;;;;;;55.28;8.73;;;6.60;99.90;;;;;;4964934;28;72829;-71
2022/03/27 05:52:27;;;;;;;62.38;8.15;;;6.60;99.90;;;;;;5010154;28;20033;-71
2022/03/27 05:54:53;;;;;;;77.50;8.27;;;6.60;99.90;;;;;;4972880;28;265441;-71
2022/03/27 05:57:19;;;;;;;78.45;8.68;;;6.50;99.90;;;;;;5022492;28;20501;-71
2022/03/27 05:59:46;;;;;;;44.38;8.55;;;6.50;99.90;;;;;;4970232;28;91762;-72
2022/03/27 06:02:13;;;;;;;91.22;8.90;;;6.50;99.90;;;;;;5010032;28;20077;-71
2022/03/27 06:04:40;;;;;;;37.65;7.82;;;6.50;99.90;;;;;;4956204;28;253659;-71
2022/03/27 06:07:07;;;;;;;49.60;7.20;;;6.60;99.90;;;;;;5005661;28;20365;-71
2022/03/27 06:09:34;;;;;;;48.97;7.45;;;6.60;99.90;;;;;;4964351;28;219521;-71
2022/03/27 06:12:02;;;;;;;59.70;7.53;;;6.70;99.90;;;;;;5024218;28;20404;-71
2022/03/27 06:14:28;;;;;;;41.67;7.40;;;6.70;99.90;;;;;;4967802;28;258980;-71
2022/03/27 06:16:55;;;;;;;42.38;6.90;;;6.80;99.90;;;;;;4995037;28;20488;-71
2022/03/27 06:19:21;;;;;;;38.25;7.05;;;6.80;99.90;;;;;;4983543;28;140568;-72
2022/03/27 06:21:47;;;;;;;38.95;6.65;;;6.80;99.90;;;;;;4999689;28;20387;-71
2022/03/27 06:24:13;;;;;;;28.00;5.75;;;6.90;99.90;;;;;;4987269;28;255307;-71
2022/03/27 06:26:40;;;;;;;30.70;6.88;;;6.90;99.90;;;;;;4987157;28;20041;-72
2022/03/27 06:29:09;;;;;;;27.20;6.40;;;7.00;99.90;;;;;;4991982;28;267968;-71
2022/03/27 06:31:38;;;;;;;35.95;7.03;;;6.90;99.90;;;;;;4984896;28;20522;-72
2022/03/27 06:34:06;;;;;;;37.57;6.13;;;6.90;99.90;;;;;;4992654;28;265139;-72
2022/03/27 06:36:34;;;;;;;35.72;6.47;;;6.90;99.90;;;;;;5003179;28;20042;-72
2022/03/27 06:39:02;;;;;;;32.33;5.73;;;6.90;99.90;;;;;;4988064;28;270960;-72
2022/03/27 06:41:29;;;;;;;36.08;6.15;;;6.90;99.90;;;;;;5000848;28;20046;-72
2022/03/27 06:43:55;;;;;;;22.58;6.25;;;6.90;99.90;;;;;;4991139;28;269430;-72
2022/03/27 06:46:21;;;;;;;24.42;6.18;;;6.80;99.90;;;;;;5006889;28;20148;-72
2022/03/27 06:48:49;;;;;;;24.10;6.40;;;6.80;99.90;;;;;;4994575;28;249952;-72
2022/03/27 06:51:16;;;;;;;22.27;5.35;;;6.90;99.90;;;;;;4991847;28;20049;-71
2022/03/27 06:53:44;;;;;;;22.60;5.57;;;6.90;99.90;;;;;;5036467;28;20173;-72
2022/03/27 06:56:11;;;;;;;19.13;5.63;;;6.90;99.90;;;;;;4977226;28;265893;-72
2022/03/27 06:58:37;;;;;;;28.77;6.28;;;6.90;99.90;;;;;;5002630;28;20088;-72
2022/03/27 07:03:47;;;;;;;24.50;5.90;;;7.00;99.90;;;;;;5008324;28;265283;-72
2022/03/27 07:06:14;;;;;;;30.13;6.57;;;7.00;99.90;;;;;;4972879;28;101751;-71
2022/03/27 07:08:41;;;;;;;29.83;6.43;;;7.10;99.90;;;;;;5007492;28;20064;-72
2022/03/27 07:11:07;;;;;;;30.92;6.55;;;7.20;99.90;;;;;;4975349;28;77915;-71
2022/03/27 07:13:34;;;;;;;36.38;6.82;;;7.20;99.90;;;;;;5007537;28;20053;-70
2022/03/27 07:16:00;;;;;;;35.28;7.28;;;7.20;99.90;;;;;;4976707;28;162940;-70
2022/03/27 07:18:26;;;;;;;33.53;7.07;;;7.30;99.90;;;;;;5008555;28;20042;-71
2022/03/27 07:20:52;;;;;;;35.33;6.95;;;7.40;99.90;;;;;;4966262;28;255916;-71
2022/03/27 07:23:20;;;;;;;47.45;7.85;;;7.40;99.90;;;;;;4996901;28;20503;-71
2022/03/27 07:25:49;;;;;;;38.97;8.05;;;7.40;99.90;;;;;;4987434;28;267683;-71
2022/03/27 07:28:18;;;;;;;39.85;7.82;;;7.40;99.90;;;;;;5008259;28;20057;-73
2022/03/27 07:30:45;;;;;;;47.25;9.05;;;7.40;99.90;;;;;;4972977;28;21772;-71
2022/03/27 07:33:13;;;;;;;48.80;9.50;;;7.40;99.90;;;;;;4981244;28;20050;-71
2022/03/27 07:35:39;;;;;;;48.47;9.93;;;7.50;99.90;;;;;;4972002;28;251195;-71
2022/03/27 07:38:06;;;;;;;45.90;9.63;;;7.50;99.90;;;;;;5006286;28;20435;-71
2022/03/27 07:40:33;;;;;;;47.83;9.68;;;7.40;99.90;;;;;;4985241;28;118512;-71
2022/03/27 07:43:00;;;;;;;48.70;9.80;;;7.40;99.90;;;;;;5000532;28;20422;-71
2022/03/27 07:45:29;;;;;;;54.08;11.23;;;7.40;99.90;;;;;;4958759;28;183891;-71
2022/03/27 07:47:56;;;;;;;51.13;9.57;;;7.50;99.90;;;;;;4991585;28;20492;-75
2022/03/27 07:50:25;;;;;;;48.45;9.43;;;7.60;99.90;;;;;;4964614;28;158702;-76
2022/03/27 07:52:52;;;;;;;45.03;9.25;;;7.60;99.90;;;;;;4997718;28;20054;-76
2022/03/27 07:55:20;;;;;;;43.75;9.60;;;7.80;99.90;;;;;;4968168;28;167741;-75
2022/03/27 07:57:46;;;;;;;49.70;9.50;;;7.80;99.90;;;;;;5002752;28;20050;-75
2022/03/27 08:00:15;;;;;;;40.58;8.70;;;8.00;99.90;;;;;;4973242;28;137083;-75
2022/03/27 08:02:42;;;;;;;43.60;8.70;;;8.30;99.90;;;;;;4993436;28;20046;-75
2022/03/27 08:05:09;;;;;;;45.50;8.63;;;8.50;99.90;;;;;;4960785;28;139105;-75
2022/03/27 08:07:36;;;;;;;48.28;9.77;;;8.80;99.90;;;;;;5009977;28;20541;-76
2022/03/27 08:10:04;;;;;;;45.38;8.50;;;9.00;99.90;;;;;;4947325;28;192493;-76
2022/03/27 08:12:30;;;;;;;45.85;9.35;;;9.20;99.90;;;;;;4993536;28;20054;-75
2022/03/27 08:14:56;;;;;;;48.53;8.30;;;9.40;99.90;;;;;;4978063;28;61894;-75
2022/03/27 08:17:22;;;;;;;43.58;7.78;;;10.00;99.90;;;;;;5026624;28;20061;-75
2022/03/27 08:19:49;;;;;;;41.97;8.35;;;10.20;99.90;;;;;;4966215;28;168747;-75
2022/03/27 08:22:16;;;;;;;40.53;7.65;;;10.60;99.90;;;;;;5019403;28;20061;-76
2022/03/27 08:24:43;;;;;;;38.38;7.55;;;11.10;99.90;;;;;;4999376;28;110939;-75
2022/03/27 08:27:09;;;;;;;44.03;8.48;;;11.00;99.90;;;;;;5013254;28;20983;-76
2022/03/27 08:29:38;;;;;;;37.15;7.40;;;11.50;99.90;;;;;;4971211;28;158617;-75
2022/03/27 08:32:07;;;;;;;38.40;7.68;;;11.90;99.90;;;;;;5014522;28;20053;-76
2022/03/27 08:34:36;;;;;;;40.50;7.63;;;12.40;99.90;;;;;;4985266;28;226199;-75
2022/03/27 08:37:04;;;;;;;39.75;7.57;;;12.80;99.90;;;;;;4997101;28;20062;-75
2022/03/27 08:39:31;;;;;;;38.25;7.70;;;12.80;99.90;;;;;;4967605;28;153465;-76
2022/03/27 08:41:58;;;;;;;34.75;7.47;;;13.30;99.90;;;;;;5019863;28;20054;-76
2022/03/27 08:44:27;;;;;;;32.70;7.28;;;13.70;99.90;;;;;;4971997;28;117121;-76
2022/03/27 08:46:56;;;;;;;32.53;7.07;;;14.20;99.90;;;;;;5014493;28;20050;-75
2022/03/27 08:49:41;;;;;;;34.08;7.40;;;14.70;99.90;;;;;;4973985;28;266267;-76
2022/03/27 08:52:29;;;;;;;32.85;6.78;;;15.30;99.90;;;;;;5004260;28;20061;-75
2022/03/27 08:55:06;;;;;;;31.52;6.78;;;14.90;99.10;;;;;;4957439;28;251330;-76
2022/03/27 08:57:51;;;;;;;31.88;7.05;;;14.70;99.10;;;;;;5005702;28;20046;-76
2022/03/27 09:00:23;;;;;;;30.48;6.82;;;14.70;98.40;;;;;;4984869;28;252561;-76
2022/03/27 09:02:50;;;;;;;31.98;7.50;;;14.70;99.90;;;;;;5017476;28;20054;-75
2022/03/27 09:05:17;;;;;;;35.40;7.45;;;15.20;98.90;;;;;;4958256;28;200443;-75
2022/03/27 09:07:43;;;;;;;30.42;7.25;;;15.60;97.90;;;;;;5012940;28;20065;-75
2022/03/27 09:10:11;;;;;;;31.50;7.28;;;15.50;96.70;;;;;;4975175;28;259706;-76
2022/03/27 09:12:38;;;;;;;32.55;7.03;;;15.60;98.50;;;;;;5013122;28;20054;-75
2022/03/27 09:15:13;;;;;;;32.50;7.30;;;16.20;98.00;;;;;;4986366;28;241711;-76
2022/03/27 09:18:10;;;;;;;27.38;6.70;;;16.60;96.30;;;;;;5018268;28;20057;-75
2022/03/27 09:20:44;;;;;;;27.83;6.85;;;16.90;92.80;;;;;;4984366;28;262630;-76
2022/03/27 09:23:25;;;;;;;28.60;6.80;;;17.30;95.60;;;;;;4993920;28;20046;-76
2022/03/27 09:26:11;;;;;;;28.02;7.15;;;17.40;90.00;;;;;;4994364;28;122869;-75
2022/03/27 09:28:39;;;;;;;30.48;6.40;;;17.70;90.60;;;;;;5016415;28;20050;-76
2022/03/27 09:31:17;;;;;;;31.80;7.72;;;18.10;91.60;;;;;;4972164;28;253848;-75
2022/03/27 09:33:59;;;;;;;27.65;7.32;;;18.40;91.50;;;;;;5020038;28;20050;-76
2022/03/27 09:36:27;;;;;;;26.75;7.10;;;18.60;80.80;;;;;;4976062;28;20053;-76
2022/03/27 09:39:22;;;;;;;27.55;6.88;;;18.50;82.70;;;;;;5001160;28;254046;-72
2022/03/27 09:41:49;;;;;;;29.55;7.28;;;18.60;77.40;;;;;;4960740;28;20543;-73
2022/03/27 09:44:19;;;;;;;24.58;6.57;;;18.50;80.70;;;;;;4972293;28;28067;-73
2022/03/27 09:46:54;;;;;;;31.00;7.27;;;18.40;76.10;;;;;;4969447;28;20522;-72
2022/03/27 09:49:25;;;;;;;24.15;6.30;;;17.90;73.00;;;;;;4983166;28;258205;-72
2022/03/27 09:51:58;;;;;;;28.30;7.07;;;18.30;76.10;;;;;;4976083;28;20056;-74
2022/03/27 09:54:25;;;;;;;25.85;6.65;;;18.70;73.20;;;;;;4965972;28;270163;-73
2022/03/27 09:56:52;;;;;;;28.08;7.28;;;19.10;72.10;;;;;;5001550;28;20073;-74
2022/03/27 09:59:30;;;;;;;27.20;7.55;;;19.40;70.90;;;;;;4992904;28;81278;-73
2022/03/27 10:02:16;;;;;;;26.52;6.30;;;19.70;65.00;;;;;;4991797;28;20547;-74
2022/03/27 10:05:01;;;;;;;23.30;6.10;;;19.90;61.90;;;;;;4978039;28;173631;-73
2022/03/27 10:07:44;;;;;;;28.50;6.60;;;20.00;66.00;;;;;;5009326;28;20037;-74
2022/03/27 10:10:15;;;;;;;26.55;6.88;;;19.90;63.90;;;;;;4981477;28;24109;-73
2022/03/27 10:12:43;;;;;;;25.15;6.45;;;20.50;64.90;;;;;;5012546;28;20053;-74
2022/03/27 10:15:17;;;;;;;27.77;6.97;;;20.80;63.50;;;;;;4972922;28;257163;-73
2022/03/27 10:17:51;;;;;;;28.27;7.10;;;20.80;58.00;;;;;;4998411;28;20049;-74
2022/03/27 10:20:21;;;;;;;25.13;6.65;;;20.60;57.70;;;;;;4974474;28;125198;-73
2022/03/27 10:23:18;;;;;;;23.88;5.80;;;20.60;59.70;;;;;;5015660;28;20062;-73
2022/03/27 10:25:48;;;;;;;23.60;6.25;;;21.20;57.60;;;;;;4974613;28;249833;-73
2022/03/27 10:28:18;;;;;;;25.02;6.78;;;21.40;57.00;;;;;;5022345;28;20057;-73
2022/03/27 10:30:45;;;;;;;26.83;6.90;;;21.70;55.70;;;;;;4983238;28;255701;-74
2022/03/27 10:33:11;;;;;;;23.42;6.10;;;21.50;53.20;;;;;;5011326;28;20050;-73
2022/03/27 10:36:08;;;;;;;26.48;7.03;;;21.50;54.00;;;;;;4954514;28;245051;-74
2022/03/27 10:39:16;;;;;;;25.88;6.38;;;21.40;50.00;;;;;;5036707;28;20057;-74
2022/03/27 10:42:02;;;;;;;25.55;6.15;;;21.20;52.30;;;;;;4973979;28;20045;-72
2022/03/27 10:44:47;;;;;;;23.20;6.28;;;21.40;52.80;;;;;;4978331;28;223779;-75
2022/03/27 10:47:24;;;;;;;22.83;5.60;;;22.10;51.10;;;;;;5020304;28;20038;-73
2022/03/27 10:50:02;;;;;;;24.48;6.50;;;22.20;47.70;;;;;;4980592;28;22162;-72
2022/03/27 10:52:30;;;;;;;21.38;5.93;;;22.20;46.50;;;;;;5009985;28;20507;-73
2022/03/27 10:55:02;;;;;;;19.98;5.60;;;22.30;48.00;;;;;;4975352;28;63060;-73
2022/03/27 10:57:35;;;;;;;24.73;6.10;;;22.20;47.40;;;;;;4991984;28;20054;-73
2022/03/27 11:00:07;;;;;;;22.30;5.80;;;22.20;44.50;;;;;;4990919;28;255868;-73
2022/03/27 11:02:51;;;;;;;19.20;5.38;;;22.20;45.50;;;;;;4999333;28;20209;-73
2022/03/27 11:05:32;;;;;;;23.45;6.03;;;22.50;46.60;;;;;;4978544;28;257803;-75
2022/03/27 11:08:16;;;;;;;22.50;5.70;;;23.00;46.20;;;;;;5007307;28;20045;-74
2022/03/27 11:10:51;;;;;;;23.35;5.53;;;23.10;44.60;;;;;;4963481;28;138518;-74
2022/03/27 11:13:27;;;;;;;18.35;5.10;;;22.80;43.50;;;;;;5010858;28;20111;-74
2022/03/27 11:16:14;;;;;;;21.08;5.65;;;23.10;42.40;;;;;;4973768;28;266634;-74
2022/03/27 11:18:43;;;;;;;25.00;5.72;;;22.80;40.90;;;;;;5006389;28;20085;-76
2022/03/27 11:21:14;;;;;;;19.02;4.95;;;23.00;43.30;;;;;;4964132;28;200711;-75
2022/03/27 11:23:41;;;;;;;21.92;5.90;;;23.40;43.40;;;;;;5012404;28;20509;-76
2022/03/27 11:26:29;;;;;;;19.23;5.22;;;23.60;42.20;;;;;;4989039;28;247947;-75
2022/03/27 11:28:59;;;;;;;23.00;5.70;;;23.80;41.10;;;;;;4991147;28;252015;-75
2022/03/27 11:31:31;;;;;;;21.60;5.37;;;23.80;41.80;;;;;;5007901;28;20057;-75
2022/03/27 11:34:11;;;;;;;19.02;5.07;;;23.80;40.40;;;;;;4975952;28;257177;-74
2022/03/27 11:36:39;;;;;;;20.30;5.18;;;24.10;38.20;;;;;;4980884;28;20033;-75
2022/03/27 11:39:08;;;;;;;19.00;4.80;;;24.10;38.50;;;;;;4991685;28;269022;-75
2022/03/27 11:41:43;;;;;;;20.35;5.22;;;24.00;39.80;;;;;;4985505;28;20522;-75
2022/03/27 11:44:24;;;;;;;16.90;4.90;;;24.10;38.80;;;;;;4996037;28;251377;-74
2022/03/27 11:46:55;;;;;;;22.30;5.93;;;24.60;38.80;;;;;;4972790;28;20050;-75
2022/03/27 11:49:22;;;;;;;19.33;5.22;;;24.60;37.40;;;;;;4981423;28;255498;-74
2022/03/27 11:52:06;;;;;;;21.52;5.20;;;24.50;38.00;;;;;;5019414;28;20057;-75
2022/03/27 11:54:32;;;;;;;19.15;5.32;;;24.50;36.30;;;;;;4970958;28;262581;-75
2022/03/27 11:57:01;;;;;;;19.83;5.72;;;24.50;37.40;;;;;;4998329;28;20058;-76
2022/03/27 11:59:27;;;;;;;17.77;5.15;;;24.60;38.00;;;;;;4973023;28;225309;-75
2022/03/27 12:01:58;;;;;;;22.40;5.40;;;24.70;37.70;;;;;;5034358;28;20057;-75
2022/03/27 12:04:25;;;;;;;18.85;4.75;;;24.90;37.60;;;;;;4956990;28;273538;-76
2022/03/27 12:06:59;;;;;;;20.13;5.22;;;25.10;36.80;;;;;;4994370;28;20045;-76
2022/03/27 12:09:30;;;;;;;19.25;5.07;;;24.80;34.60;;;;;;4962437;28;101722;-76
2022/03/27 12:12:13;;;;;;;20.48;5.50;;;24.20;36.30;;;;;;4997809;28;20057;-76
2022/03/27 12:14:57;;;;;;;17.92;4.95;;;23.70;35.50;;;;;;4967934;28;160715;-76
2022/03/27 12:17:25;;;;;;;21.05;5.22;;;24.00;37.00;;;;;;5005661;28;20046;-76
2022/03/27 12:20:05;;;;;;;23.48;5.72;;;24.40;37.10;;;;;;4972858;28;263696;-76
2022/03/27 12:22:43;;;;;;;18.50;5.00;;;24.00;35.60;;;;;;5006262;28;20503;-75
2022/03/27 12:25:20;;;;;;;17.45;5.07;;;24.30;36.70;;;;;;4968720;28;247053;-75
2022/03/27 12:30:50;;;;;;;17.92;4.32;;;24.30;37.70;;;;;;4978667;28;258889;-74
2022/03/27 12:33:20;;;;;;;18.88;4.55;;;24.90;35.40;;;;;;5004039;28;20084;-74
2022/03/27 12:36:13;;;;;;;17.73;5.05;;;24.30;34.60;;;;;;4971633;28;110998;-75
2022/03/27 12:38:39;;;;;;;16.83;4.22;;;24.30;34.60;;;;;;5004102;28;20057;-76
2022/03/27 12:41:10;;;;;;;15.90;4.13;;;24.80;34.70;;;;;;4969545;28;203111;-75
2022/03/27 12:43:42;;;;;;;16.35;4.35;;;25.00;34.00;;;;;;5009110;28;20081;-74
2022/03/27 12:46:19;;;;;;;18.02;4.50;;;25.50;35.20;;;;;;4986670;28;257340;-75
2022/03/27 12:48:57;;;;;;;16.73;4.00;;;25.90;33.50;;;;;;5036093;28;20065;-75
2022/03/27 12:51:24;;;;;;;15.52;3.90;;;26.00;32.70;;;;;;4962052;28;20040;-75
2022/03/27 12:54:04;;;;;;;13.98;3.67;;;25.80;32.20;;;;;;4988923;28;256676;-75
2022/03/27 12:56:32;;;;;;;16.35;4.00;;;25.90;30.80;;;;;;4987373;28;20030;-75